sensor_id;sensor_type;location;lat;lon;timestamp;temperature;humidity
20512;DHT22;10414;52.074;5.126;2022-12-18T00:01:21;-0.60;99.90
20512;DHT22;10414;52.074;5.126;2022-12-18T00:03:48;-0.70;99.90
20512;DHT22;10414;52.074;5.126;2022-12-18T00:06:16;-0.50;99.90
20512;DHT22;10414;52.074;5.126;2022-12-18T00:08:44;-0.50;99.90
20512;DHT22;10414;52.074;5.126;2022-12-18T00:11:12;-0.50;99.90
20512;DHT22;10414;52.074;5.126;2022-12-18T00:13:39;-0.50;99.90
20512;DHT22;10414;52.074;5.126;2022-12-18T00:16:07;-0.60;99.90
20512;DHT22;10414;52.074;5.126;2022-12-18T00:18:36;-0.60;99.90
20512;DHT22;10414;52.074;5.126;2022-12-18T00:21:11;-0.60;99.90
20512;DHT22;10414;52.074;5.126;2022-12-18T00:23:38;-0.70;99.90
20512;DHT22;10414;52.074;5.126;2022-12-18T00:26:07;-0.60;99.90
20512;DHT22;10414;52.074;5.126;2022-12-18T00:28:36;-0.70;99.90
20512;DHT22;10414;52.074;5.126;2022-12-18T00:31:10;-0.80;99.90
20512;DHT22;10414;52.074;5.126;2022-12-18T00:33:39;-0.70;99.90
20512;DHT22;10414;52.074;5.126;2022-12-18T00:36:07;-0.80;99.90
20512;DHT22;10414;52.074;5.126;2022-12-18T00:38:37;-0.70;99.90
20512;DHT22;10414;52.074;5.126;2022-12-18T00:41:09;-0.90;99.90
20512;DHT22;10414;52.074;5.126;2022-12-18T00:43:37;-0.80;99.90
20512;DHT22;10414;52.074;5.126;2022-12-18T00:46:03;-0.50;99.90
20512;DHT22;10414;52.074;5.126;2022-12-18T00:48:31;-0.60;99.90
20512;DHT22;10414;52.074;5.126;2022-12-18T00:50:59;-0.80;99.90
20512;DHT22;10414;52.074;5.126;2022-12-18T00:53:26;-0.70;99.90
20512;DHT22;10414;52.074;5.126;2022-12-18T00:55:53;-0.70;99.90
20512;DHT22;10414;52.074;5.126;2022-12-18T00:58:27;-0.70;99.90
20512;DHT22;10414;52.074;5.126;2022-12-18T01:00:56;-0.70;99.90
20512;DHT22;10414;52.074;5.126;2022-12-18T01:03:23;-0.80;99.90
20512;DHT22;10414;52.074;5.126;2022-12-18T01:05:50;-1.00;99.90
20512;DHT22;10414;52.074;5.126;2022-12-18T01:08:19;-0.90;99.90
20512;DHT22;10414;52.074;5.126;2022-12-18T01:10:47;-1.20;99.90
20512;DHT22;10414;52.074;5.126;2022-12-18T01:13:15;-1.20;99.90
20512;DHT22;10414;52.074;5.126;2022-12-18T01:15:48;-1.00;99.90
20512;DHT22;10414;52.074;5.126;2022-12-18T01:18:18;-1.00;99.90
20512;DHT22;10414;52.074;5.126;2022-12-18T01:20:47;-0.70;99.90
20512;DHT22;10414;52.074;5.126;2022-12-18T01:23:19;-1.00;99.90
20512;DHT22;10414;52.074;5.126;2022-12-18T01:25:46;-1.10;99.90
20512;DHT22;10414;52.074;5.126;2022-12-18T01:28:13;-1.20;99.90
20512;DHT22;10414;52.074;5.126;2022-12-18T01:30:40;-1.20;99.90
20512;DHT22;10414;52.074;5.126;2022-12-18T01:33:07;-1.00;99.90
20512;DHT22;10414;52.074;5.126;2022-12-18T01:35:33;-1.00;99.90
20512;DHT22;10414;52.074;5.126;2022-12-18T01:38:18;-1.30;99.90
20512;DHT22;10414;52.074;5.126;2022-12-18T01:40:46;-1.30;99.90
20512;DHT22;10414;52.074;5.126;2022-12-18T01:43:12;-1.30;99.90
20512;DHT22;10414;52.074;5.126;2022-12-18T01:45:39;-1.10;99.90
20512;DHT22;10414;52.074;5.126;2022-12-18T01:48:10;-1.10;99.90
20512;DHT22;10414;52.074;5.126;2022-12-18T01:50:38;-1.10;99.90
20512;DHT22;10414;52.074;5.126;2022-12-18T01:53:09;-1.00;99.90
20512;DHT22;10414;52.074;5.126;2022-12-18T01:55:40;-1.20;99.90
20512;DHT22;10414;52.074;5.126;2022-12-18T01:58:18;-1.40;99.90
20512;DHT22;10414;52.074;5.126;2022-12-18T02:00:45;-1.50;99.90
20512;DHT22;10414;52.074;5.126;2022-12-18T02:03:12;-1.40;99.90
20512;DHT22;10414;52.074;5.126;2022-12-18T02:05:44;-1.20;99.90
20512;DHT22;10414;52.074;5.126;2022-12-18T02:08:16;-1.20;99.90
20512;DHT22;10414;52.074;5.126;2022-12-18T02:10:48;-1.20;99.90
20512;DHT22;10414;52.074;5.126;2022-12-18T02:13:27;-1.30;99.90
20512;DHT22;10414;52.074;5.126;2022-12-18T02:16:03;-1.00;99.90
20512;DHT22;10414;52.074;5.126;2022-12-18T02:18:42;-1.20;99.90
20512;DHT22;10414;52.074;5.126;2022-12-18T02:21:17;-1.20;99.90
20512;DHT22;10414;52.074;5.126;2022-12-18T02:23:50;-1.20;99.90
20512;DHT22;10414;52.074;5.126;2022-12-18T02:26:26;-1.10;99.90
20512;DHT22;10414;52.074;5.126;2022-12-18T02:28:58;-1.10;99.90
20512;DHT22;10414;52.074;5.126;2022-12-18T02:31:29;-1.20;99.90
20512;DHT22;10414;52.074;5.126;2022-12-18T02:34:01;-1.00;99.90
20512;DHT22;10414;52.074;5.126;2022-12-18T02:36:30;-0.90;99.90
20512;DHT22;10414;52.074;5.126;2022-12-18T02:38:59;-1.10;99.90
20512;DHT22;10414;52.074;5.126;2022-12-18T02:41:33;-1.10;99.90
20512;DHT22;10414;52.074;5.126;2022-12-18T02:44:07;-1.10;99.90
20512;DHT22;10414;52.074;5.126;2022-12-18T02:46:36;-1.40;99.90
20512;DHT22;10414;52.074;5.126;2022-12-18T02:49:17;-1.40;99.90
20512;DHT22;10414;52.074;5.126;2022-12-18T02:51:52;-1.60;99.90
20512;DHT22;10414;52.074;5.126;2022-12-18T02:54:38;-1.40;99.90
20512;DHT22;10414;52.074;5.126;2022-12-18T02:57:15;-1.00;99.90
20512;DHT22;10414;52.074;5.126;2022-12-18T02:59:52;-0.80;99.90
20512;DHT22;10414;52.074;5.126;2022-12-18T03:02:26;-0.80;99.90
20512;DHT22;10414;52.074;5.126;2022-12-18T03:04:59;-0.80;99.90
20512;DHT22;10414;52.074;5.126;2022-12-18T03:07:33;-0.90;99.90
20512;DHT22;10414;52.074;5.126;2022-12-18T03:10:02;-1.30;99.90
20512;DHT22;10414;52.074;5.126;2022-12-18T03:12:34;-1.50;99.90
20512;DHT22;10414;52.074;5.126;2022-12-18T03:15:09;-1.40;99.90
20512;DHT22;10414;52.074;5.126;2022-12-18T03:17:40;-1.30;99.90
20512;DHT22;10414;52.074;5.126;2022-12-18T03:20:11;-1.10;99.90
20512;DHT22;10414;52.074;5.126;2022-12-18T03:22:39;-1.30;99.90
20512;DHT22;10414;52.074;5.126;2022-12-18T03:25:13;-1.40;99.90
20512;DHT22;10414;52.074;5.126;2022-12-18T03:27:47;-1.50;99.90
20512;DHT22;10414;52.074;5.126;2022-12-18T03:30:16;-1.40;99.90
20512;DHT22;10414;52.074;5.126;2022-12-18T03:32:47;-1.50;99.90
20512;DHT22;10414;52.074;5.126;2022-12-18T03:35:19;-1.40;99.90
20512;DHT22;10414;52.074;5.126;2022-12-18T03:37:48;-1.40;99.90
20512;DHT22;10414;52.074;5.126;2022-12-18T03:40:15;-1.50;99.90
20512;DHT22;10414;52.074;5.126;2022-12-18T03:42:47;-1.40;99.90
20512;DHT22;10414;52.074;5.126;2022-12-18T03:45:22;-1.50;99.90
20512;DHT22;10414;52.074;5.126;2022-12-18T03:47:58;-1.40;99.90
20512;DHT22;10414;52.074;5.126;2022-12-18T03:50:37;-1.30;99.90
20512;DHT22;10414;52.074;5.126;2022-12-18T03:53:14;-1.40;99.90
20512;DHT22;10414;52.074;5.126;2022-12-18T03:55:43;-1.40;99.90
20512;DHT22;10414;52.074;5.126;2022-12-18T03:58:16;-1.40;99.90
20512;DHT22;10414;52.074;5.126;2022-12-18T04:00:44;-1.40;99.90
20512;DHT22;10414;52.074;5.126;2022-12-18T04:03:13;-1.60;99.90
20512;DHT22;10414;52.074;5.126;2022-12-18T04:05:43;-1.30;99.90
20512;DHT22;10414;52.074;5.126;2022-12-18T04:08:10;-1.50;99.90
20512;DHT22;10414;52.074;5.126;2022-12-18T04:10:39;-1.60;99.90
20512;DHT22;10414;52.074;5.126;2022-12-18T04:13:06;-1.70;99.90
20512;DHT22;10414;52.074;5.126;2022-12-18T04:15:36;-1.50;99.90
20512;DHT22;10414;52.074;5.126;2022-12-18T04:18:04;-1.60;99.90
20512;DHT22;10414;52.074;5.126;2022-12-18T04:20:30;-1.50;99.90
20512;DHT22;10414;52.074;5.126;2022-12-18T04:22:57;-1.50;99.90
20512;DHT22;10414;52.074;5.126;2022-12-18T04:25:26;-1.60;99.90
20512;DHT22;10414;52.074;5.126;2022-12-18T04:27:53;-1.70;99.90
20512;DHT22;10414;52.074;5.126;2022-12-18T04:30:21;-1.70;99.90
20512;DHT22;10414;52.074;5.126;2022-12-18T04:32:50;-1.60;99.90
20512;DHT22;10414;52.074;5.126;2022-12-18T04:35:18;-1.70;99.90
20512;DHT22;10414;52.074;5.126;2022-12-18T04:37:45;-1.60;99.90
20512;DHT22;10414;52.074;5.126;2022-12-18T04:40:12;-1.90;99.90
20512;DHT22;10414;52.074;5.126;2022-12-18T04:43:37;-1.80;99.90
20512;DHT22;10414;52.074;5.126;2022-12-18T04:46:07;-1.80;99.90
20512;DHT22;10414;52.074;5.126;2022-12-18T04:48:37;-1.80;99.90
20512;DHT22;10414;52.074;5.126;2022-12-18T04:51:07;-1.70;99.90
20512;DHT22;10414;52.074;5.126;2022-12-18T04:53:34;-1.80;99.90
20512;DHT22;10414;52.074;5.126;2022-12-18T04:56:05;-1.90;99.90
20512;DHT22;10414;52.074;5.126;2022-12-18T04:58:37;-1.80;99.90
20512;DHT22;10414;52.074;5.126;2022-12-18T05:01:04;-1.70;99.90
20512;DHT22;10414;52.074;5.126;2022-12-18T05:03:34;-1.70;99.90
20512;DHT22;10414;52.074;5.126;2022-12-18T05:06:02;-2.10;99.90
20512;DHT22;10414;52.074;5.126;2022-12-18T05:08:31;-2.00;99.90
20512;DHT22;10414;52.074;5.126;2022-12-18T05:11:01;-2.00;99.90
20512;DHT22;10414;52.074;5.126;2022-12-18T05:13:28;-2.10;99.90
20512;DHT22;10414;52.074;5.126;2022-12-18T05:15:59;-2.20;99.90
20512;DHT22;10414;52.074;5.126;2022-12-18T05:18:26;-2.20;99.90
20512;DHT22;10414;52.074;5.126;2022-12-18T05:20:54;-2.40;99.90
20512;DHT22;10414;52.074;5.126;2022-12-18T05:23:22;-2.50;99.90
20512;DHT22;10414;52.074;5.126;2022-12-18T05:25:51;-2.30;99.90
20512;DHT22;10414;52.074;5.126;2022-12-18T05:28:18;-2.20;99.90
20512;DHT22;10414;52.074;5.126;2022-12-18T05:30:48;-2.20;99.90
20512;DHT22;10414;52.074;5.126;2022-12-18T05:33:19;-2.20;99.90
20512;DHT22;10414;52.074;5.126;2022-12-18T05:35:54;-2.00;99.90
20512;DHT22;10414;52.074;5.126;2022-12-18T05:38:23;-1.90;99.90
20512;DHT22;10414;52.074;5.126;2022-12-18T05:40:51;-1.90;99.90
20512;DHT22;10414;52.074;5.126;2022-12-18T05:43:18;-2.10;99.90
20512;DHT22;10414;52.074;5.126;2022-12-18T05:45:50;-2.10;99.90
20512;DHT22;10414;52.074;5.126;2022-12-18T05:48:24;-1.90;99.90
20512;DHT22;10414;52.074;5.126;2022-12-18T05:50:52;-2.20;99.90
20512;DHT22;10414;52.074;5.126;2022-12-18T05:53:20;-2.10;99.90
20512;DHT22;10414;52.074;5.126;2022-12-18T05:55:48;-2.20;99.90
20512;DHT22;10414;52.074;5.126;2022-12-18T05:58:15;-2.30;99.90
20512;DHT22;10414;52.074;5.126;2022-12-18T06:00:45;-2.20;99.90
20512;DHT22;10414;52.074;5.126;2022-12-18T06:03:15;-2.20;99.90
20512;DHT22;10414;52.074;5.126;2022-12-18T06:05:45;-2.20;99.90
20512;DHT22;10414;52.074;5.126;2022-12-18T06:08:13;-2.30;99.90
20512;DHT22;10414;52.074;5.126;2022-12-18T06:10:41;-2.30;99.90
20512;DHT22;10414;52.074;5.126;2022-12-18T06:13:07;-2.30;99.90
20512;DHT22;10414;52.074;5.126;2022-12-18T06:15:37;-2.20;99.90
20512;DHT22;10414;52.074;5.126;2022-12-18T06:18:07;-2.50;99.90
20512;DHT22;10414;52.074;5.126;2022-12-18T06:20:34;-2.40;99.90
20512;DHT22;10414;52.074;5.126;2022-12-18T06:23:03;-2.40;99.90
20512;DHT22;10414;52.074;5.126;2022-12-18T06:25:30;-2.20;99.90
20512;DHT22;10414;52.074;5.126;2022-12-18T06:27:59;-2.10;99.90
20512;DHT22;10414;52.074;5.126;2022-12-18T06:30:26;-2.10;99.90
20512;DHT22;10414;52.074;5.126;2022-12-18T06:32:53;-2.10;99.90
20512;DHT22;10414;52.074;5.126;2022-12-18T06:35:20;-2.10;99.90
20512;DHT22;10414;52.074;5.126;2022-12-18T06:37:49;-2.20;99.90
20512;DHT22;10414;52.074;5.126;2022-12-18T06:40:20;-2.20;99.90
20512;DHT22;10414;52.074;5.126;2022-12-18T06:42:53;-2.30;99.90
20512;DHT22;10414;52.074;5.126;2022-12-18T06:45:20;-2.20;99.90
20512;DHT22;10414;52.074;5.126;2022-12-18T06:47:50;-2.20;99.90
20512;DHT22;10414;52.074;5.126;2022-12-18T06:50:17;-2.10;99.90
20512;DHT22;10414;52.074;5.126;2022-12-18T06:52:46;-2.00;99.90
20512;DHT22;10414;52.074;5.126;2022-12-18T06:55:13;-2.20;99.90
20512;DHT22;10414;52.074;5.126;2022-12-18T06:57:41;-2.20;99.90
20512;DHT22;10414;52.074;5.126;2022-12-18T07:00:09;-2.00;99.90
20512;DHT22;10414;52.074;5.126;2022-12-18T07:02:36;-1.90;99.90
20512;DHT22;10414;52.074;5.126;2022-12-18T07:05:03;-2.10;99.90
20512;DHT22;10414;52.074;5.126;2022-12-18T07:07:33;-2.30;99.90
20512;DHT22;10414;52.074;5.126;2022-12-18T07:10:03;-2.10;99.90
20512;DHT22;10414;52.074;5.126;2022-12-18T07:12:30;-2.10;99.90
20512;DHT22;10414;52.074;5.126;2022-12-18T07:14:58;-2.10;99.90
20512;DHT22;10414;52.074;5.126;2022-12-18T07:17:25;-2.00;99.90
20512;DHT22;10414;52.074;5.126;2022-12-18T07:19:54;-2.10;99.90
20512;DHT22;10414;52.074;5.126;2022-12-18T07:22:21;-2.00;99.90
20512;DHT22;10414;52.074;5.126;2022-12-18T07:24:48;-2.00;99.90
20512;DHT22;10414;52.074;5.126;2022-12-18T07:27:15;-2.30;99.90
20512;DHT22;10414;52.074;5.126;2022-12-18T07:29:41;-2.20;99.90
20512;DHT22;10414;52.074;5.126;2022-12-18T07:32:11;-2.30;99.90
20512;DHT22;10414;52.074;5.126;2022-12-18T07:34:40;-2.20;99.90
20512;DHT22;10414;52.074;5.126;2022-12-18T07:37:07;-2.20;99.90
20512;DHT22;10414;52.074;5.126;2022-12-18T07:39:33;-2.00;99.90
20512;DHT22;10414;52.074;5.126;2022-12-18T07:42:00;-2.10;99.90
20512;DHT22;10414;52.074;5.126;2022-12-18T07:44:56;-1.70;99.90
20512;DHT22;10414;52.074;5.126;2022-12-18T07:47:24;-1.60;99.90
20512;DHT22;10414;52.074;5.126;2022-12-18T07:49:51;-1.70;99.90
20512;DHT22;10414;52.074;5.126;2022-12-18T07:52:18;-1.70;99.90
20512;DHT22;10414;52.074;5.126;2022-12-18T07:54:45;-1.40;99.90
20512;DHT22;10414;52.074;5.126;2022-12-18T07:57:14;-1.60;99.90
20512;DHT22;10414;52.074;5.126;2022-12-18T07:59:41;-1.50;99.90
20512;DHT22;10414;52.074;5.126;2022-12-18T08:02:08;-1.30;99.90
20512;DHT22;10414;52.074;5.126;2022-12-18T08:04:36;-1.30;99.90
20512;DHT22;10414;52.074;5.126;2022-12-18T08:07:05;-1.30;99.90
20512;DHT22;10414;52.074;5.126;2022-12-18T08:09:36;-1.30;99.90
20512;DHT22;10414;52.074;5.126;2022-12-18T08:12:06;-1.10;99.90
20512;DHT22;10414;52.074;5.126;2022-12-18T08:14:33;-1.20;99.90
20512;DHT22;10414;52.074;5.126;2022-12-18T08:17:00;-1.00;99.90
20512;DHT22;10414;52.074;5.126;2022-12-18T08:19:29;-1.20;99.90
20512;DHT22;10414;52.074;5.126;2022-12-18T08:21:59;-1.20;99.90
20512;DHT22;10414;52.074;5.126;2022-12-18T08:24:27;-1.00;99.90
20512;DHT22;10414;52.074;5.126;2022-12-18T08:26:54;-1.00;99.90
20512;DHT22;10414;52.074;5.126;2022-12-18T08:29:22;-0.90;99.90
20512;DHT22;10414;52.074;5.126;2022-12-18T08:31:49;-0.80;99.90
20512;DHT22;10414;52.074;5.126;2022-12-18T08:34:18;-0.60;99.90
20512;DHT22;10414;52.074;5.126;2022-12-18T08:36:45;-0.80;99.90
20512;DHT22;10414;52.074;5.126;2022-12-18T08:39:13;-0.70;99.90
20512;DHT22;10414;52.074;5.126;2022-12-18T08:41:42;-0.60;99.90
20512;DHT22;10414;52.074;5.126;2022-12-18T08:44:32;-0.50;99.90
20512;DHT22;10414;52.074;5.126;2022-12-18T08:47:04;-0.50;99.90
20512;DHT22;10414;52.074;5.126;2022-12-18T08:49:32;-0.30;99.90
20512;DHT22;10414;52.074;5.126;2022-12-18T08:51:59;-0.20;99.90
20512;DHT22;10414;52.074;5.126;2022-12-18T08:54:27;-0.20;99.90
20512;DHT22;10414;52.074;5.126;2022-12-18T08:56:55;-0.40;99.90
20512;DHT22;10414;52.074;5.126;2022-12-18T08:59:21;-0.30;99.90
20512;DHT22;10414;52.074;5.126;2022-12-18T09:01:49;-0.40;99.90
20512;DHT22;10414;52.074;5.126;2022-12-18T09:04:16;-0.30;99.90
20512;DHT22;10414;52.074;5.126;2022-12-18T09:06:45;-0.20;99.90
20512;DHT22;10414;52.074;5.126;2022-12-18T09:09:12;-0.20;99.90
20512;DHT22;10414;52.074;5.126;2022-12-18T09:11:42;-0.20;99.90
20512;DHT22;10414;52.074;5.126;2022-12-18T09:14:11;-0.30;99.90
20512;DHT22;10414;52.074;5.126;2022-12-18T09:16:38;-0.30;99.90
20512;DHT22;10414;52.074;5.126;2022-12-18T09:19:05;-0.50;99.90
20512;DHT22;10414;52.074;5.126;2022-12-18T09:21:34;-0.50;99.90
20512;DHT22;10414;52.074;5.126;2022-12-18T09:24:05;-0.40;99.90
20512;DHT22;10414;52.074;5.126;2022-12-18T09:26:32;-0.30;99.90
20512;DHT22;10414;52.074;5.126;2022-12-18T09:29:00;-0.40;99.90
20512;DHT22;10414;52.074;5.126;2022-12-18T09:31:33;-0.40;99.90
20512;DHT22;10414;52.074;5.126;2022-12-18T09:34:00;-0.30;99.90
20512;DHT22;10414;52.074;5.126;2022-12-18T09:36:29;-0.20;99.90
20512;DHT22;10414;52.074;5.126;2022-12-18T09:38:56;-0.30;99.90
20512;DHT22;10414;52.074;5.126;2022-12-18T09:41:36;-0.40;99.90
20512;DHT22;10414;52.074;5.126;2022-12-18T09:44:14;-0.30;99.90
20512;DHT22;10414;52.074;5.126;2022-12-18T09:46:45;-0.20;99.90
20512;DHT22;10414;52.074;5.126;2022-12-18T09:49:19;-0.20;99.90
20512;DHT22;10414;52.074;5.126;2022-12-18T09:51:52;-0.10;99.90
20512;DHT22;10414;52.074;5.126;2022-12-18T09:54:24;-0.20;99.90
20512;DHT22;10414;52.074;5.126;2022-12-18T09:56:52;-0.20;99.90
20512;DHT22;10414;52.074;5.126;2022-12-18T09:59:25;0.00;99.90
20512;DHT22;10414;52.074;5.126;2022-12-18T10:01:56;0.00;99.90
20512;DHT22;10414;52.074;5.126;2022-12-18T10:04:27;0.10;99.90
20512;DHT22;10414;52.074;5.126;2022-12-18T10:07:00;0.10;99.90
20512;DHT22;10414;52.074;5.126;2022-12-18T10:09:34;0.10;99.90
20512;DHT22;10414;52.074;5.126;2022-12-18T10:12:09;0.30;99.90
20512;DHT22;10414;52.074;5.126;2022-12-18T10:14:46;0.20;99.90
20512;DHT22;10414;52.074;5.126;2022-12-18T10:17:24;0.10;99.90
20512;DHT22;10414;52.074;5.126;2022-12-18T10:19:55;0.30;99.90
20512;DHT22;10414;52.074;5.126;2022-12-18T10:22:35;0.20;99.90
20512;DHT22;10414;52.074;5.126;2022-12-18T10:25:12;0.10;99.90
20512;DHT22;10414;52.074;5.126;2022-12-18T10:27:40;-0.10;99.90
20512;DHT22;10414;52.074;5.126;2022-12-18T10:30:15;0.20;99.90
20512;DHT22;10414;52.074;5.126;2022-12-18T10:32:42;0.20;99.90
20512;DHT22;10414;52.074;5.126;2022-12-18T10:35:17;0.30;99.90
20512;DHT22;10414;52.074;5.126;2022-12-18T10:38:03;0.30;99.90
20512;DHT22;10414;52.074;5.126;2022-12-18T10:40:30;0.40;99.90
20512;DHT22;10414;52.074;5.126;2022-12-18T10:43:04;0.30;99.90
20512;DHT22;10414;52.074;5.126;2022-12-18T10:45:32;0.60;99.90
20512;DHT22;10414;52.074;5.126;2022-12-18T10:48:00;0.60;99.90
20512;DHT22;10414;52.074;5.126;2022-12-18T10:50:30;0.50;99.90
20512;DHT22;10414;52.074;5.126;2022-12-18T10:52:59;0.50;99.90
20512;DHT22;10414;52.074;5.126;2022-12-18T10:55:31;0.70;99.90
20512;DHT22;10414;52.074;5.126;2022-12-18T10:58:19;0.70;99.90
20512;DHT22;10414;52.074;5.126;2022-12-18T11:01:05;0.90;99.90
20512;DHT22;10414;52.074;5.126;2022-12-18T11:03:34;0.80;99.90
20512;DHT22;10414;52.074;5.126;2022-12-18T11:06:04;0.70;99.90
20512;DHT22;10414;52.074;5.126;2022-12-18T11:08:31;0.90;99.90
20512;DHT22;10414;52.074;5.126;2022-12-18T11:10:58;1.00;99.90
20512;DHT22;10414;52.074;5.126;2022-12-18T11:13:27;1.00;99.90
20512;DHT22;10414;52.074;5.126;2022-12-18T11:15:56;0.80;99.90
20512;DHT22;10414;52.074;5.126;2022-12-18T11:18:27;0.90;99.90
20512;DHT22;10414;52.074;5.126;2022-12-18T11:20:54;0.90;99.90
20512;DHT22;10414;52.074;5.126;2022-12-18T11:23:23;1.00;99.90
20512;DHT22;10414;52.074;5.126;2022-12-18T11:25:55;1.10;99.90
20512;DHT22;10414;52.074;5.126;2022-12-18T11:28:37;1.20;99.90
20512;DHT22;10414;52.074;5.126;2022-12-18T11:33:58;1.20;99.90
20512;DHT22;10414;52.074;5.126;2022-12-18T11:36:30;1.30;99.90
20512;DHT22;10414;52.074;5.126;2022-12-18T11:39:01;1.10;99.90
20512;DHT22;10414;52.074;5.126;2022-12-18T11:41:32;1.30;99.90
20512;DHT22;10414;52.074;5.126;2022-12-18T11:44:26;1.30;99.90
20512;DHT22;10414;52.074;5.126;2022-12-18T11:47:03;1.00;99.90
20512;DHT22;10414;52.074;5.126;2022-12-18T11:49:35;1.10;99.90
20512;DHT22;10414;52.074;5.126;2022-12-18T11:52:04;1.20;99.90
20512;DHT22;10414;52.074;5.126;2022-12-18T11:54:35;1.40;99.90
20512;DHT22;10414;52.074;5.126;2022-12-18T11:57:07;1.40;99.90
20512;DHT22;10414;52.074;5.126;2022-12-18T11:59:44;1.40;99.90
20512;DHT22;10414;52.074;5.126;2022-12-18T12:02:39;1.70;99.90
20512;DHT22;10414;52.074;5.126;2022-12-18T12:05:25;1.60;99.90
20512;DHT22;10414;52.074;5.126;2022-12-18T12:08:00;1.50;99.90
20512;DHT22;10414;52.074;5.126;2022-12-18T12:10:39;1.60;99.90
20512;DHT22;10414;52.074;5.126;2022-12-18T12:13:19;1.50;99.90
20512;DHT22;10414;52.074;5.126;2022-12-18T12:15:59;1.50;99.90
20512;DHT22;10414;52.074;5.126;2022-12-18T12:18:36;1.70;99.90
20512;DHT22;10414;52.074;5.126;2022-12-18T12:21:14;1.80;99.90
20512;DHT22;10414;52.074;5.126;2022-12-18T12:23:52;1.50;99.90
20512;DHT22;10414;52.074;5.126;2022-12-18T12:26:26;1.60;99.90
20512;DHT22;10414;52.074;5.126;2022-12-18T12:29:02;1.70;99.90
20512;DHT22;10414;52.074;5.126;2022-12-18T12:31:46;1.60;99.90
20512;DHT22;10414;52.074;5.126;2022-12-18T12:34:19;1.60;99.90
20512;DHT22;10414;52.074;5.126;2022-12-18T12:37:00;1.50;99.90
20512;DHT22;10414;52.074;5.126;2022-12-18T12:39:35;1.60;99.90
20512;DHT22;10414;52.074;5.126;2022-12-18T12:42:04;1.50;99.90
20512;DHT22;10414;52.074;5.126;2022-12-18T12:44:53;1.50;99.90
20512;DHT22;10414;52.074;5.126;2022-12-18T12:47:23;1.50;99.90
20512;DHT22;10414;52.074;5.126;2022-12-18T12:49:54;1.50;99.90
20512;DHT22;10414;52.074;5.126;2022-12-18T12:52:31;1.50;99.90
20512;DHT22;10414;52.074;5.126;2022-12-18T12:55:00;1.60;99.90
20512;DHT22;10414;52.074;5.126;2022-12-18T12:57:33;1.70;99.90
20512;DHT22;10414;52.074;5.126;2022-12-18T13:00:04;1.60;99.90
20512;DHT22;10414;52.074;5.126;2022-12-18T13:02:39;1.50;99.90
20512;DHT22;10414;52.074;5.126;2022-12-18T13:05:16;1.80;99.90
20512;DHT22;10414;52.074;5.126;2022-12-18T13:07:50;1.60;99.90
20512;DHT22;10414;52.074;5.126;2022-12-18T13:10:30;2.00;99.90
20512;DHT22;10414;52.074;5.126;2022-12-18T13:13:00;2.00;99.90
20512;DHT22;10414;52.074;5.126;2022-12-18T13:15:31;1.90;99.90
20512;DHT22;10414;52.074;5.126;2022-12-18T13:18:14;2.00;99.90
20512;DHT22;10414;52.074;5.126;2022-12-18T13:20:43;2.00;99.90
20512;DHT22;10414;52.074;5.126;2022-12-18T13:23:36;2.10;99.90
20512;DHT22;10414;52.074;5.126;2022-12-18T13:26:28;1.80;99.90
20512;DHT22;10414;52.074;5.126;2022-12-18T13:28:56;2.00;99.90
20512;DHT22;10414;52.074;5.126;2022-12-18T13:34:38;2.20;99.90
20512;DHT22;10414;52.074;5.126;2022-12-18T13:40:55;2.10;99.90
20512;DHT22;10414;52.074;5.126;2022-12-18T13:43:35;1.90;99.90
20512;DHT22;10414;52.074;5.126;2022-12-18T13:46:17;2.00;99.90
20512;DHT22;10414;52.074;5.126;2022-12-18T13:49:00;2.00;99.90
20512;DHT22;10414;52.074;5.126;2022-12-18T13:51:29;1.90;99.90
20512;DHT22;10414;52.074;5.126;2022-12-18T13:54:02;1.90;99.90
20512;DHT22;10414;52.074;5.126;2022-12-18T13:56:32;2.00;99.90
20512;DHT22;10414;52.074;5.126;2022-12-18T13:59:19;1.90;99.90
20512;DHT22;10414;52.074;5.126;2022-12-18T14:01:52;1.90;99.90
20512;DHT22;10414;52.074;5.126;2022-12-18T14:04:23;1.90;99.90
20512;DHT22;10414;52.074;5.126;2022-12-18T14:06:56;2.00;99.90
20512;DHT22;10414;52.074;5.126;2022-12-18T14:09:26;1.90;99.90
20512;DHT22;10414;52.074;5.126;2022-12-18T14:11:55;2.00;99.90
20512;DHT22;10414;52.074;5.126;2022-12-18T14:14:44;2.00;99.90
20512;DHT22;10414;52.074;5.126;2022-12-18T14:17:15;2.00;99.90
20512;DHT22;10414;52.074;5.126;2022-12-18T14:19:46;2.00;99.90
20512;DHT22;10414;52.074;5.126;2022-12-18T14:22:16;2.00;99.90
20512;DHT22;10414;52.074;5.126;2022-12-18T14:24:43;2.00;99.90
20512;DHT22;10414;52.074;5.126;2022-12-18T14:27:24;2.10;99.90
20512;DHT22;10414;52.074;5.126;2022-12-18T14:29:51;2.20;99.90
20512;DHT22;10414;52.074;5.126;2022-12-18T14:32:19;2.20;99.90
20512;DHT22;10414;52.074;5.126;2022-12-18T14:34:49;2.10;99.90
20512;DHT22;10414;52.074;5.126;2022-12-18T14:37:21;2.10;99.90
20512;DHT22;10414;52.074;5.126;2022-12-18T14:39:55;2.30;99.90
20512;DHT22;10414;52.074;5.126;2022-12-18T14:42:25;2.00;99.90
20512;DHT22;10414;52.074;5.126;2022-12-18T14:47:53;2.10;99.90
20512;DHT22;10414;52.074;5.126;2022-12-18T14:50:20;2.00;99.90
20512;DHT22;10414;52.074;5.126;2022-12-18T14:52:50;1.90;99.90
20512;DHT22;10414;52.074;5.126;2022-12-18T14:55:18;1.70;99.90
20512;DHT22;10414;52.074;5.126;2022-12-18T14:57:49;1.70;99.90
20512;DHT22;10414;52.074;5.126;2022-12-18T15:00:17;1.80;99.90
20512;DHT22;10414;52.074;5.126;2022-12-18T15:02:46;1.80;99.90
20512;DHT22;10414;52.074;5.126;2022-12-18T15:05:20;2.00;99.90
20512;DHT22;10414;52.074;5.126;2022-12-18T15:07:51;2.10;99.90
20512;DHT22;10414;52.074;5.126;2022-12-18T15:10:19;2.10;99.90
20512;DHT22;10414;52.074;5.126;2022-12-18T15:12:49;2.10;99.90
20512;DHT22;10414;52.074;5.126;2022-12-18T15:15:44;2.10;99.90
20512;DHT22;10414;52.074;5.126;2022-12-18T15:18:13;2.10;99.90
20512;DHT22;10414;52.074;5.126;2022-12-18T15:20:44;1.80;99.90
20512;DHT22;10414;52.074;5.126;2022-12-18T15:23:20;1.50;99.90
20512;DHT22;10414;52.074;5.126;2022-12-18T15:25:54;1.70;99.90
20512;DHT22;10414;52.074;5.126;2022-12-18T15:28:25;1.90;99.90
20512;DHT22;10414;52.074;5.126;2022-12-18T15:31:17;1.90;99.90
20512;DHT22;10414;52.074;5.126;2022-12-18T15:34:00;1.90;99.90
20512;DHT22;10414;52.074;5.126;2022-12-18T15:36:29;1.90;99.90
20512;DHT22;10414;52.074;5.126;2022-12-18T15:39:02;1.90;99.90
20512;DHT22;10414;52.074;5.126;2022-12-18T15:41:31;2.10;99.90
20512;DHT22;10414;52.074;5.126;2022-12-18T15:43:59;2.00;99.90
20512;DHT22;10414;52.074;5.126;2022-12-18T15:46:27;1.90;99.90
20512;DHT22;10414;52.074;5.126;2022-12-18T15:48:56;1.90;99.90
20512;DHT22;10414;52.074;5.126;2022-12-18T15:51:26;1.70;99.90
20512;DHT22;10414;52.074;5.126;2022-12-18T15:53:56;1.80;99.90
20512;DHT22;10414;52.074;5.126;2022-12-18T15:56:25;1.80;99.90
20512;DHT22;10414;52.074;5.126;2022-12-18T15:59:13;1.80;99.90
20512;DHT22;10414;52.074;5.126;2022-12-18T16:01:41;1.70;99.90
20512;DHT22;10414;52.074;5.126;2022-12-18T16:04:09;2.00;99.90
20512;DHT22;10414;52.074;5.126;2022-12-18T16:06:37;2.00;99.90
20512;DHT22;10414;52.074;5.126;2022-12-18T16:09:04;2.10;99.90
20512;DHT22;10414;52.074;5.126;2022-12-18T16:11:34;2.10;99.90
20512;DHT22;10414;52.074;5.126;2022-12-18T16:14:19;2.00;99.90
20512;DHT22;10414;52.074;5.126;2022-12-18T16:16:47;1.70;99.90